sensor_id;sensor_type;location;lat;lon;timestamp;P1;durP1;ratioP1;P2;durP2;ratioP2
177;SDS011;77;48.792;9.032;2023-02-19T00:01:38;7.50;;;5.47;;
177;SDS011;77;48.792;9.032;2023-02-19T00:04:04;8.23;;;5.97;;
177;SDS011;77;48.792;9.032;2023-02-19T00:06:30;10.00;;;5.97;;
177;SDS011;77;48.792;9.032;2023-02-19T00:08:56;8.40;;;5.60;;
177;SDS011;77;48.792;9.032;2023-02-19T00:11:23;10.27;;;5.80;;
177;SDS011;77;48.792;9.032;2023-02-19T00:13:49;7.70;;;5.10;;
177;SDS011;77;48.792;9.032;2023-02-19T00:16:16;9.10;;;6.00;;
177;SDS011;77;48.792;9.032;2023-02-19T00:18:42;8.53;;;5.57;;
177;SDS011;77;48.792;9.032;2023-02-19T00:21:07;8.60;;;5.97;;
177;SDS011;77;48.792;9.032;2023-02-19T00:23:33;8.90;;;5.60;;
177;SDS011;77;48.792;9.032;2023-02-19T00:26:00;8.67;;;5.43;;
177;SDS011;77;48.792;9.032;2023-02-19T00:28:26;9.30;;;5.50;;
177;SDS011;77;48.792;9.032;2023-02-19T00:30:51;9.00;;;5.40;;
177;SDS011;77;48.792;9.032;2023-02-19T00:33:17;7.40;;;5.10;;
177;SDS011;77;48.792;9.032;2023-02-19T00:35:42;8.80;;;4.80;;
177;SDS011;77;48.792;9.032;2023-02-19T00:38:09;6.90;;;4.77;;
177;SDS011;77;48.792;9.032;2023-02-19T00:40:34;7.10;;;4.73;;
177;SDS011;77;48.792;9.032;2023-02-19T00:42:59;7.60;;;4.87;;
177;SDS011;77;48.792;9.032;2023-02-19T00:45:24;7.60;;;5.00;;
177;SDS011;77;48.792;9.032;2023-02-19T00:47:49;8.13;;;4.70;;
177;SDS011;77;48.792;9.032;2023-02-19T00:50:16;7.33;;;4.80;;
177;SDS011;77;48.792;9.032;2023-02-19T00:52:41;7.87;;;4.50;;
177;SDS011;77;48.792;9.032;2023-02-19T00:55:06;7.67;;;4.80;;
177;SDS011;77;48.792;9.032;2023-02-19T00:57:32;9.73;;;4.80;;
177;SDS011;77;48.792;9.032;2023-02-19T00:59:57;7.30;;;4.37;;
177;SDS011;77;48.792;9.032;2023-02-19T01:02:22;7.03;;;4.60;;
177;SDS011;77;48.792;9.032;2023-02-19T01:04:47;7.00;;;4.40;;
177;SDS011;77;48.792;9.032;2023-02-19T01:07:14;7.57;;;4.83;;
177;SDS011;77;48.792;9.032;2023-02-19T01:09:39;6.47;;;4.10;;
177;SDS011;77;48.792;9.032;2023-02-19T01:12:04;7.00;;;4.27;;
177;SDS011;77;48.792;9.032;2023-02-19T01:14:29;7.63;;;4.40;;
177;SDS011;77;48.792;9.032;2023-02-19T01:16:55;6.80;;;4.20;;
177;SDS011;77;48.792;9.032;2023-02-19T01:19:20;8.20;;;4.27;;
177;SDS011;77;48.792;9.032;2023-02-19T01:21:45;5.97;;;3.80;;
177;SDS011;77;48.792;9.032;2023-02-19T01:24:11;7.90;;;4.50;;
177;SDS011;77;48.792;9.032;2023-02-19T01:26:37;5.57;;;3.60;;
177;SDS011;77;48.792;9.032;2023-02-19T01:29:02;8.10;;;4.33;;
177;SDS011;77;48.792;9.032;2023-02-19T01:31:27;6.93;;;4.43;;
177;SDS011;77;48.792;9.032;2023-02-19T01:33:54;7.10;;;4.10;;
177;SDS011;77;48.792;9.032;2023-02-19T01:36:20;6.70;;;4.13;;
177;SDS011;77;48.792;9.032;2023-02-19T01:38:45;6.60;;;3.80;;
177;SDS011;77;48.792;9.032;2023-02-19T01:41:12;6.07;;;3.70;;
177;SDS011;77;48.792;9.032;2023-02-19T01:43:54;5.90;;;3.93;;
177;SDS011;77;48.792;9.032;2023-02-19T01:46:19;6.07;;;3.70;;
177;SDS011;77;48.792;9.032;2023-02-19T01:48:44;6.57;;;4.40;;
177;SDS011;77;48.792;9.032;2023-02-19T01:51:11;6.07;;;3.70;;
177;SDS011;77;48.792;9.032;2023-02-19T01:53:38;5.80;;;3.80;;
177;SDS011;77;48.792;9.032;2023-02-19T01:56:05;6.30;;;3.83;;
177;SDS011;77;48.792;9.032;2023-02-19T01:58:33;6.40;;;3.60;;
177;SDS011;77;48.792;9.032;2023-02-19T02:00:59;6.20;;;3.80;;
177;SDS011;77;48.792;9.032;2023-02-19T02:03:26;5.50;;;3.30;;
177;SDS011;77;48.792;9.032;2023-02-19T02:05:53;5.60;;;3.43;;
177;SDS011;77;48.792;9.032;2023-02-19T02:08:20;6.00;;;3.70;;
177;SDS011;77;48.792;9.032;2023-02-19T02:10:45;6.03;;;3.70;;
177;SDS011;77;48.792;9.032;2023-02-19T02:13:10;5.57;;;3.47;;
177;SDS011;77;48.792;9.032;2023-02-19T02:15:38;5.80;;;3.70;;
177;SDS011;77;48.792;9.032;2023-02-19T02:18:07;5.20;;;3.33;;
177;SDS011;77;48.792;9.032;2023-02-19T02:20:40;7.00;;;3.90;;
177;SDS011;77;48.792;9.032;2023-02-19T02:23:12;11.00;;;3.97;;
177;SDS011;77;48.792;9.032;2023-02-19T02:25:57;6.83;;;4.20;;
177;SDS011;77;48.792;9.032;2023-02-19T02:28:29;7.40;;;4.00;;
177;SDS011;77;48.792;9.032;2023-02-19T02:30:59;6.90;;;3.80;;
177;SDS011;77;48.792;9.032;2023-02-19T02:33:27;8.73;;;4.30;;
177;SDS011;77;48.792;9.032;2023-02-19T02:35:55;6.60;;;4.23;;
177;SDS011;77;48.792;9.032;2023-02-19T02:38:22;8.53;;;4.23;;
177;SDS011;77;48.792;9.032;2023-02-19T02:40:48;6.90;;;4.00;;
177;SDS011;77;48.792;9.032;2023-02-19T02:43:15;6.80;;;4.13;;
177;SDS011;77;48.792;9.032;2023-02-19T02:45:40;14.73;;;4.20;;
177;SDS011;77;48.792;9.032;2023-02-19T02:48:21;6.40;;;4.10;;
177;SDS011;77;48.792;9.032;2023-02-19T02:50:49;6.60;;;4.00;;
177;SDS011;77;48.792;9.032;2023-02-19T02:53:15;6.20;;;3.60;;
177;SDS011;77;48.792;9.032;2023-02-19T02:55:42;6.40;;;4.00;;
177;SDS011;77;48.792;9.032;2023-02-19T02:58:07;7.20;;;4.33;;
177;SDS011;77;48.792;9.032;2023-02-19T03:00:33;8.80;;;4.00;;
177;SDS011;77;48.792;9.032;2023-02-19T03:03:00;6.43;;;4.03;;
177;SDS011;77;48.792;9.032;2023-02-19T03:05:27;6.57;;;4.03;;
177;SDS011;77;48.792;9.032;2023-02-19T03:07:53;7.03;;;3.67;;
177;SDS011;77;48.792;9.032;2023-02-19T03:10:21;7.43;;;3.40;;
177;SDS011;77;48.792;9.032;2023-02-19T03:12:48;7.33;;;3.70;;
177;SDS011;77;48.792;9.032;2023-02-19T03:15:15;6.10;;;3.83;;
177;SDS011;77;48.792;9.032;2023-02-19T03:17:41;7.07;;;4.27;;
177;SDS011;77;48.792;9.032;2023-02-19T03:20:11;5.97;;;3.80;;
177;SDS011;77;48.792;9.032;2023-02-19T03:22:40;6.37;;;3.70;;
177;SDS011;77;48.792;9.032;2023-02-19T03:25:08;6.30;;;3.80;;
177;SDS011;77;48.792;9.032;2023-02-19T03:27:35;6.53;;;4.20;;
177;SDS011;77;48.792;9.032;2023-02-19T03:30:03;6.30;;;3.80;;
177;SDS011;77;48.792;9.032;2023-02-19T03:32:30;6.87;;;4.10;;
177;SDS011;77;48.792;9.032;2023-02-19T03:34:58;7.87;;;4.10;;
177;SDS011;77;48.792;9.032;2023-02-19T03:37:25;6.77;;;4.33;;
177;SDS011;77;48.792;9.032;2023-02-19T03:39:54;7.50;;;4.00;;
177;SDS011;77;48.792;9.032;2023-02-19T03:42:23;11.57;;;4.43;;
177;SDS011;77;48.792;9.032;2023-02-19T03:44:52;6.50;;;3.80;;
177;SDS011;77;48.792;9.032;2023-02-19T03:47:24;6.60;;;3.63;;
177;SDS011;77;48.792;9.032;2023-02-19T03:49:51;6.60;;;3.70;;
177;SDS011;77;48.792;9.032;2023-02-19T03:52:19;6.90;;;3.77;;
177;SDS011;77;48.792;9.032;2023-02-19T03:54:47;5.80;;;3.30;;
177;SDS011;77;48.792;9.032;2023-02-19T03:57:17;6.13;;;3.20;;
177;SDS011;77;48.792;9.032;2023-02-19T03:59:45;5.33;;;3.10;;
177;SDS011;77;48.792;9.032;2023-02-19T04:02:13;5.30;;;3.07;;
177;SDS011;77;48.792;9.032;2023-02-19T04:04:40;6.10;;;3.03;;
177;SDS011;77;48.792;9.032;2023-02-19T04:07:07;4.77;;;2.67;;
177;SDS011;77;48.792;9.032;2023-02-19T04:09:33;6.33;;;3.00;;
177;SDS011;77;48.792;9.032;2023-02-19T04:12:00;4.87;;;2.50;;
177;SDS011;77;48.792;9.032;2023-02-19T04:14:28;4.90;;;2.43;;
177;SDS011;77;48.792;9.032;2023-02-19T04:17:01;5.40;;;2.50;;
177;SDS011;77;48.792;9.032;2023-02-19T04:19:27;5.07;;;2.50;;
177;SDS011;77;48.792;9.032;2023-02-19T04:21:54;6.73;;;2.50;;
177;SDS011;77;48.792;9.032;2023-02-19T04:24:21;7.53;;;2.40;;
177;SDS011;77;48.792;9.032;2023-02-19T04:26:46;4.40;;;2.10;;
177;SDS011;77;48.792;9.032;2023-02-19T04:29:12;5.10;;;2.00;;
177;SDS011;77;48.792;9.032;2023-02-19T04:31:38;4.87;;;2.20;;
177;SDS011;77;48.792;9.032;2023-02-19T04:34:03;4.40;;;2.03;;
177;SDS011;77;48.792;9.032;2023-02-19T04:36:29;4.00;;;1.93;;
177;SDS011;77;48.792;9.032;2023-02-19T04:38:54;4.17;;;2.00;;
177;SDS011;77;48.792;9.032;2023-02-19T04:41:19;3.93;;;1.90;;
177;SDS011;77;48.792;9.032;2023-02-19T04:43:44;3.87;;;1.80;;
177;SDS011;77;48.792;9.032;2023-02-19T04:46:09;3.83;;;1.70;;
177;SDS011;77;48.792;9.032;2023-02-19T04:48:36;4.03;;;2.00;;
177;SDS011;77;48.792;9.032;2023-02-19T04:51:03;3.43;;;1.50;;
177;SDS011;77;48.792;9.032;2023-02-19T04:53:28;4.10;;;1.60;;
177;SDS011;77;48.792;9.032;2023-02-19T04:55:53;3.70;;;1.50;;
177;SDS011;77;48.792;9.032;2023-02-19T04:58:19;3.80;;;1.60;;
177;SDS011;77;48.792;9.032;2023-02-19T05:00:44;3.40;;;1.30;;
177;SDS011;77;48.792;9.032;2023-02-19T05:03:09;3.13;;;1.30;;
177;SDS011;77;48.792;9.032;2023-02-19T05:05:36;3.07;;;1.30;;
177;SDS011;77;48.792;9.032;2023-02-19T05:08:01;3.57;;;1.30;;
177;SDS011;77;48.792;9.032;2023-02-19T05:10:26;3.10;;;1.20;;
177;SDS011;77;48.792;9.032;2023-02-19T05:12:53;3.20;;;1.20;;
177;SDS011;77;48.792;9.032;2023-02-19T05:15:18;3.20;;;1.30;;
177;SDS011;77;48.792;9.032;2023-02-19T05:17:43;3.17;;;1.30;;
177;SDS011;77;48.792;9.032;2023-02-19T05:20:08;3.70;;;1.40;;
177;SDS011;77;48.792;9.032;2023-02-19T05:22:35;3.10;;;1.20;;
177;SDS011;77;48.792;9.032;2023-02-19T05:25:00;3.40;;;1.30;;
177;SDS011;77;48.792;9.032;2023-02-19T05:27:25;3.10;;;1.20;;
177;SDS011;77;48.792;9.032;2023-02-19T05:29:51;3.20;;;1.20;;
177;SDS011;77;48.792;9.032;2023-02-19T05:32:16;3.10;;;1.20;;
177;SDS011;77;48.792;9.032;2023-02-19T05:34:41;3.23;;;1.27;;
177;SDS011;77;48.792;9.032;2023-02-19T05:37:06;3.10;;;1.20;;
177;SDS011;77;48.792;9.032;2023-02-19T05:39:33;3.47;;;1.40;;
177;SDS011;77;48.792;9.032;2023-02-19T05:41:58;3.10;;;1.20;;
177;SDS011;77;48.792;9.032;2023-02-19T05:44:23;3.10;;;1.30;;
177;SDS011;77;48.792;9.032;2023-02-19T05:46:48;3.90;;;1.33;;
177;SDS011;77;48.792;9.032;2023-02-19T05:49:13;3.10;;;1.20;;
177;SDS011;77;48.792;9.032;2023-02-19T05:51:39;3.13;;;1.30;;
177;SDS011;77;48.792;9.032;2023-02-19T05:54:04;3.30;;;1.30;;
177;SDS011;77;48.792;9.032;2023-02-19T05:56:31;3.20;;;1.23;;
177;SDS011;77;48.792;9.032;2023-02-19T05:58:56;2.80;;;1.13;;
177;SDS011;77;48.792;9.032;2023-02-19T06:01:23;3.67;;;1.20;;
177;SDS011;77;48.792;9.032;2023-02-19T06:03:48;3.27;;;1.17;;
177;SDS011;77;48.792;9.032;2023-02-19T06:06:13;3.07;;;1.20;;
177;SDS011;77;48.792;9.032;2023-02-19T06:08:38;3.10;;;1.20;;
177;SDS011;77;48.792;9.032;2023-02-19T06:11:04;3.30;;;1.30;;
177;SDS011;77;48.792;9.032;2023-02-19T06:13:30;3.20;;;1.30;;
177;SDS011;77;48.792;9.032;2023-02-19T06:15:55;3.20;;;1.33;;
177;SDS011;77;48.792;9.032;2023-02-19T06:18:21;3.10;;;1.30;;
177;SDS011;77;48.792;9.032;2023-02-19T06:20:46;3.50;;;1.40;;
177;SDS011;77;48.792;9.032;2023-02-19T06:23:11;3.40;;;1.40;;
177;SDS011;77;48.792;9.032;2023-02-19T06:25:36;3.10;;;1.40;;
177;SDS011;77;48.792;9.032;2023-02-19T06:28:01;3.20;;;1.50;;
177;SDS011;77;48.792;9.032;2023-02-19T06:30:28;3.07;;;1.40;;
177;SDS011;77;48.792;9.032;2023-02-19T06:32:53;3.70;;;1.60;;
177;SDS011;77;48.792;9.032;2023-02-19T06:35:18;3.43;;;1.60;;
177;SDS011;77;48.792;9.032;2023-02-19T06:37:45;3.33;;;1.70;;
177;SDS011;77;48.792;9.032;2023-02-19T06:40:10;3.80;;;1.80;;
177;SDS011;77;48.792;9.032;2023-02-19T06:42:35;4.40;;;1.90;;
177;SDS011;77;48.792;9.032;2023-02-19T06:45:00;3.43;;;1.70;;
177;SDS011;77;48.792;9.032;2023-02-19T06:47:27;3.67;;;1.70;;
177;SDS011;77;48.792;9.032;2023-02-19T06:49:54;4.07;;;2.07;;
177;SDS011;77;48.792;9.032;2023-02-19T06:52:19;4.20;;;2.20;;
177;SDS011;77;48.792;9.032;2023-02-19T06:54:44;4.10;;;2.10;;
177;SDS011;77;48.792;9.032;2023-02-19T06:57:09;4.00;;;1.87;;
177;SDS011;77;48.792;9.032;2023-02-19T06:59:34;3.90;;;2.07;;
177;SDS011;77;48.792;9.032;2023-02-19T07:02:00;4.10;;;2.20;;
177;SDS011;77;48.792;9.032;2023-02-19T07:04:26;4.17;;;2.03;;
177;SDS011;77;48.792;9.032;2023-02-19T07:06:51;4.63;;;2.13;;
177;SDS011;77;48.792;9.032;2023-02-19T07:09:16;4.47;;;2.30;;
177;SDS011;77;48.792;9.032;2023-02-19T07:11:42;3.77;;;1.90;;
177;SDS011;77;48.792;9.032;2023-02-19T07:14:07;3.90;;;2.03;;
177;SDS011;77;48.792;9.032;2023-02-19T07:16:37;4.23;;;2.00;;
177;SDS011;77;48.792;9.032;2023-02-19T07:19:02;4.10;;;2.20;;
177;SDS011;77;48.792;9.032;2023-02-19T07:21:29;5.27;;;2.20;;
177;SDS011;77;48.792;9.032;2023-02-19T07:23:54;4.47;;;2.33;;
177;SDS011;77;48.792;9.032;2023-02-19T07:26:20;5.43;;;2.60;;
177;SDS011;77;48.792;9.032;2023-02-19T07:28:46;4.27;;;2.30;;
177;SDS011;77;48.792;9.032;2023-02-19T07:31:11;6.40;;;2.50;;
177;SDS011;77;48.792;9.032;2023-02-19T07:33:37;5.03;;;2.70;;
177;SDS011;77;48.792;9.032;2023-02-19T07:36:02;5.03;;;2.70;;
177;SDS011;77;48.792;9.032;2023-02-19T07:38:28;6.10;;;2.70;;
177;SDS011;77;48.792;9.032;2023-02-19T07:40:54;4.93;;;3.00;;
177;SDS011;77;48.792;9.032;2023-02-19T07:43:20;5.20;;;2.80;;
177;SDS011;77;48.792;9.032;2023-02-19T07:45:45;5.00;;;3.00;;
177;SDS011;77;48.792;9.032;2023-02-19T07:48:10;4.73;;;2.50;;
177;SDS011;77;48.792;9.032;2023-02-19T07:50:35;4.67;;;2.50;;
177;SDS011;77;48.792;9.032;2023-02-19T07:53:01;5.07;;;2.70;;
177;SDS011;77;48.792;9.032;2023-02-19T07:55:27;6.93;;;2.60;;
177;SDS011;77;48.792;9.032;2023-02-19T07:57:52;4.57;;;2.50;;
177;SDS011;77;48.792;9.032;2023-02-19T08:00:17;4.40;;;2.60;;
177;SDS011;77;48.792;9.032;2023-02-19T08:02:43;4.60;;;2.53;;
177;SDS011;77;48.792;9.032;2023-02-19T08:05:08;5.50;;;2.67;;
177;SDS011;77;48.792;9.032;2023-02-19T08:07:33;4.60;;;2.40;;
177;SDS011;77;48.792;9.032;2023-02-19T08:09:59;3.63;;;2.13;;
177;SDS011;77;48.792;9.032;2023-02-19T08:12:26;4.77;;;2.50;;
177;SDS011;77;48.792;9.032;2023-02-19T08:14:51;3.70;;;2.00;;
177;SDS011;77;48.792;9.032;2023-02-19T08:17:16;4.40;;;2.50;;
177;SDS011;77;48.792;9.032;2023-02-19T08:19:42;4.03;;;2.20;;
177;SDS011;77;48.792;9.032;2023-02-19T08:22:07;3.87;;;2.13;;
177;SDS011;77;48.792;9.032;2023-02-19T08:24:32;4.97;;;2.20;;
177;SDS011;77;48.792;9.032;2023-02-19T08:26:57;4.07;;;2.10;;
177;SDS011;77;48.792;9.032;2023-02-19T08:29:24;4.00;;;1.83;;
177;SDS011;77;48.792;9.032;2023-02-19T08:31:49;3.83;;;2.03;;
177;SDS011;77;48.792;9.032;2023-02-19T08:34:14;3.80;;;1.70;;
177;SDS011;77;48.792;9.032;2023-02-19T08:36:39;3.70;;;1.80;;
177;SDS011;77;48.792;9.032;2023-02-19T08:39:04;4.20;;;1.97;;
177;SDS011;77;48.792;9.032;2023-02-19T08:41:30;3.60;;;1.80;;
177;SDS011;77;48.792;9.032;2023-02-19T08:43:55;3.77;;;1.80;;
177;SDS011;77;48.792;9.032;2023-02-19T08:46:21;3.50;;;1.90;;
177;SDS011;77;48.792;9.032;2023-02-19T08:48:46;4.20;;;2.00;;
177;SDS011;77;48.792;9.032;2023-02-19T08:51:12;4.77;;;2.23;;
177;SDS011;77;48.792;9.032;2023-02-19T08:53:37;3.87;;;1.97;;
177;SDS011;77;48.792;9.032;2023-02-19T08:56:03;3.87;;;1.90;;
177;SDS011;77;48.792;9.032;2023-02-19T08:58:28;4.00;;;2.00;;
177;SDS011;77;48.792;9.032;2023-02-19T09:00:54;3.90;;;1.87;;
177;SDS011;77;48.792;9.032;2023-02-19T09:03:20;6.20;;;2.03;;
177;SDS011;77;48.792;9.032;2023-02-19T09:05:45;4.90;;;2.37;;
177;SDS011;77;48.792;9.032;2023-02-19T09:08:10;4.53;;;2.37;;
177;SDS011;77;48.792;9.032;2023-02-19T09:10:36;5.10;;;2.53;;
177;SDS011;77;48.792;9.032;2023-02-19T09:13:01;4.97;;;2.57;;
177;SDS011;77;48.792;9.032;2023-02-19T09:15:26;4.67;;;2.40;;
177;SDS011;77;48.792;9.032;2023-02-19T09:17:51;5.67;;;2.50;;
177;SDS011;77;48.792;9.032;2023-02-19T09:20:18;6.40;;;3.30;;
177;SDS011;77;48.792;9.032;2023-02-19T09:22:43;6.13;;;2.57;;
177;SDS011;77;48.792;9.032;2023-02-19T09:25:09;7.13;;;3.27;;
177;SDS011;77;48.792;9.032;2023-02-19T09:27:34;5.73;;;2.63;;
177;SDS011;77;48.792;9.032;2023-02-19T09:29:59;4.73;;;2.57;;
177;SDS011;77;48.792;9.032;2023-02-19T09:32:24;5.50;;;2.40;;
177;SDS011;77;48.792;9.032;2023-02-19T09:34:49;4.83;;;2.30;;
177;SDS011;77;48.792;9.032;2023-02-19T09:37:16;7.77;;;2.53;;
177;SDS011;77;48.792;9.032;2023-02-19T09:39:41;5.40;;;2.50;;
177;SDS011;77;48.792;9.032;2023-02-19T09:42:09;7.73;;;2.70;;
177;SDS011;77;48.792;9.032;2023-02-19T09:44:36;4.60;;;2.40;;
177;SDS011;77;48.792;9.032;2023-02-19T09:47:06;5.50;;;2.53;;
177;SDS011;77;48.792;9.032;2023-02-19T09:49:33;7.30;;;2.70;;
177;SDS011;77;48.792;9.032;2023-02-19T09:51:59;6.80;;;2.47;;
177;SDS011;77;48.792;9.032;2023-02-19T09:54:29;4.83;;;2.30;;
177;SDS011;77;48.792;9.032;2023-02-19T09:56:55;5.70;;;2.70;;
177;SDS011;77;48.792;9.032;2023-02-19T09:59:21;5.03;;;2.43;;
177;SDS011;77;48.792;9.032;2023-02-19T10:01:48;6.50;;;2.40;;
177;SDS011;77;48.792;9.032;2023-02-19T10:04:22;5.90;;;2.40;;
177;SDS011;77;48.792;9.032;2023-02-19T10:06:49;7.33;;;2.83;;
177;SDS011;77;48.792;9.032;2023-02-19T10:09:18;9.57;;;2.80;;
177;SDS011;77;48.792;9.032;2023-02-19T10:11:46;6.50;;;2.57;;
177;SDS011;77;48.792;9.032;2023-02-19T10:14:12;5.57;;;2.60;;
177;SDS011;77;48.792;9.032;2023-02-19T10:16:39;5.00;;;2.37;;
177;SDS011;77;48.792;9.032;2023-02-19T10:19:08;4.90;;;2.27;;
177;SDS011;77;48.792;9.032;2023-02-19T10:21:33;4.30;;;2.40;;
177;SDS011;77;48.792;9.032;2023-02-19T10:24:01;6.60;;;2.43;;
177;SDS011;77;48.792;9.032;2023-02-19T10:26:27;7.03;;;3.13;;
177;SDS011;77;48.792;9.032;2023-02-19T10:28:53;8.90;;;2.60;;
177;SDS011;77;48.792;9.032;2023-02-19T10:31:20;9.10;;;2.97;;
177;SDS011;77;48.792;9.032;2023-02-19T10:33:47;6.63;;;2.80;;
177;SDS011;77;48.792;9.032;2023-02-19T10:36:15;6.23;;;2.50;;
177;SDS011;77;48.792;9.032;2023-02-19T10:38:44;7.80;;;2.50;;
177;SDS011;77;48.792;9.032;2023-02-19T10:41:11;6.63;;;2.50;;
177;SDS011;77;48.792;9.032;2023-02-19T10:43:37;5.90;;;2.27;;
177;SDS011;77;48.792;9.032;2023-02-19T10:46:06;3.80;;;2.03;;
177;SDS011;77;48.792;9.032;2023-02-19T10:48:34;4.93;;;2.77;;
177;SDS011;77;48.792;9.032;2023-02-19T10:51:00;4.77;;;2.40;;
177;SDS011;77;48.792;9.032;2023-02-19T10:53:34;6.13;;;2.40;;
177;SDS011;77;48.792;9.032;2023-02-19T10:56:05;7.27;;;2.40;;
177;SDS011;77;48.792;9.032;2023-02-19T10:58:30;11.07;;;2.40;;
177;SDS011;77;48.792;9.032;2023-02-19T11:03:43;4.80;;;2.27;;
177;SDS011;77;48.792;9.032;2023-02-19T11:06:09;4.83;;;2.20;;
177;SDS011;77;48.792;9.032;2023-02-19T11:08:43;8.27;;;3.40;;
177;SDS011;77;48.792;9.032;2023-02-19T11:11:09;6.17;;;2.63;;
177;SDS011;77;48.792;9.032;2023-02-19T11:13:45;5.47;;;2.37;;
177;SDS011;77;48.792;9.032;2023-02-19T11:16:10;4.47;;;2.27;;
177;SDS011;77;48.792;9.032;2023-02-19T11:18:35;6.63;;;2.63;;
177;SDS011;77;48.792;9.032;2023-02-19T11:21:02;6.70;;;2.40;;
177;SDS011;77;48.792;9.032;2023-02-19T11:23:28;7.43;;;2.67;;
177;SDS011;77;48.792;9.032;2023-02-19T11:25:55;6.90;;;3.57;;
177;SDS011;77;48.792;9.032;2023-02-19T11:28:27;5.80;;;2.43;;
177;SDS011;77;48.792;9.032;2023-02-19T11:30:53;8.20;;;2.60;;
177;SDS011;77;48.792;9.032;2023-02-19T11:33:23;7.97;;;4.10;;
177;SDS011;77;48.792;9.032;2023-02-19T11:35:49;7.87;;;3.73;;
177;SDS011;77;48.792;9.032;2023-02-19T11:38:16;5.30;;;3.17;;
177;SDS011;77;48.792;9.032;2023-02-19T11:40:43;6.53;;;2.70;;
177;SDS011;77;48.792;9.032;2023-02-19T11:43:11;6.40;;;2.70;;
177;SDS011;77;48.792;9.032;2023-02-19T11:45:42;6.47;;;3.13;;
177;SDS011;77;48.792;9.032;2023-02-19T11:48:18;8.47;;;2.83;;
177;SDS011;77;48.792;9.032;2023-02-19T11:50:51;7.23;;;2.63;;
177;SDS011;77;48.792;9.032;2023-02-19T11:53:20;9.33;;;3.30;;
177;SDS011;77;48.792;9.032;2023-02-19T11:55:48;5.80;;;2.73;;
177;SDS011;77;48.792;9.032;2023-02-19T11:58:28;7.33;;;3.93;;
177;SDS011;77;48.792;9.032;2023-02-19T12:00:58;7.67;;;3.20;;
177;SDS011;77;48.792;9.032;2023-02-19T12:03:30;4.50;;;2.50;;
177;SDS011;77;48.792;9.032;2023-02-19T12:06:03;9.67;;;4.47;;
177;SDS011;77;48.792;9.032;2023-02-19T12:08:37;9.73;;;3.20;;
177;SDS011;77;48.792;9.032;2023-02-19T12:11:10;6.50;;;3.43;;
177;SDS011;77;48.792;9.032;2023-02-19T12:13:42;4.70;;;2.40;;
177;SDS011;77;48.792;9.032;2023-02-19T12:16:16;6.50;;;2.80;;
177;SDS011;77;48.792;9.032;2023-02-19T12:18:53;16.20;;;8.60;;
177;SDS011;77;48.792;9.032;2023-02-19T12:21:23;7.53;;;4.30;;
177;SDS011;77;48.792;9.032;2023-02-19T12:23:56;4.73;;;2.50;;
177;SDS011;77;48.792;9.032;2023-02-19T12:26:27;4.83;;;3.07;;
177;SDS011;77;48.792;9.032;2023-02-19T12:29:00;4.10;;;2.50;;
177;SDS011;77;48.792;9.032;2023-02-19T12:34:23;4.83;;;2.80;;
177;SDS011;77;48.792;9.032;2023-02-19T12:36:54;7.33;;;2.60;;
177;SDS011;77;48.792;9.032;2023-02-19T12:39:24;4.03;;;2.37;;
177;SDS011;77;48.792;9.032;2023-02-19T12:41:53;7.87;;;2.57;;
177;SDS011;77;48.792;9.032;2023-02-19T12:44:21;9.17;;;2.60;;
177;SDS011;77;48.792;9.032;2023-02-19T12:46:50;5.43;;;2.63;;
177;SDS011;77;48.792;9.032;2023-02-19T12:49:17;3.37;;;2.37;;
177;SDS011;77;48.792;9.032;2023-02-19T12:51:47;5.27;;;2.30;;
177;SDS011;77;48.792;9.032;2023-02-19T12:54:13;3.73;;;2.27;;
177;SDS011;77;48.792;9.032;2023-02-19T12:56:43;4.27;;;2.17;;
177;SDS011;77;48.792;9.032;2023-02-19T12:59:10;5.00;;;2.40;;
177;SDS011;77;48.792;9.032;2023-02-19T13:01:41;3.83;;;2.33;;
177;SDS011;77;48.792;9.032;2023-02-19T13:04:13;4.13;;;2.57;;
177;SDS011;77;48.792;9.032;2023-02-19T13:06:41;5.17;;;2.43;;
177;SDS011;77;48.792;9.032;2023-02-19T13:09:10;4.37;;;2.50;;
177;SDS011;77;48.792;9.032;2023-02-19T13:11:38;7.83;;;2.20;;
177;SDS011;77;48.792;9.032;2023-02-19T13:14:09;4.07;;;2.10;;
177;SDS011;77;48.792;9.032;2023-02-19T13:16:36;5.00;;;2.40;;
177;SDS011;77;48.792;9.032;2023-02-19T13:19:03;4.40;;;2.30;;
177;SDS011;77;48.792;9.032;2023-02-19T13:21:30;4.20;;;2.40;;
177;SDS011;77;48.792;9.032;2023-02-19T13:23:55;3.83;;;2.20;;
177;SDS011;77;48.792;9.032;2023-02-19T13:26:24;3.20;;;2.30;;
177;SDS011;77;48.792;9.032;2023-02-19T13:28:55;4.00;;;2.30;;
177;SDS011;77;48.792;9.032;2023-02-19T13:34:03;6.33;;;2.43;;
177;SDS011;77;48.792;9.032;2023-02-19T13:36:33;4.33;;;2.30;;
177;SDS011;77;48.792;9.032;2023-02-19T13:38:59;4.53;;;2.20;;
177;SDS011;77;48.792;9.032;2023-02-19T13:41:28;6.40;;;2.37;;
177;SDS011;77;48.792;9.032;2023-02-19T13:43:56;5.57;;;2.67;;
177;SDS011;77;48.792;9.032;2023-02-19T13:46:22;5.40;;;2.43;;
177;SDS011;77;48.792;9.032;2023-02-19T13:48:48;4.10;;;2.47;;
177;SDS011;77;48.792;9.032;2023-02-19T13:51:43;4.87;;;2.40;;
177;SDS011;77;48.792;9.032;2023-02-19T13:54:12;4.20;;;2.47;;
177;SDS011;77;48.792;9.032;2023-02-19T13:56:38;5.77;;;2.70;;
177;SDS011;77;48.792;9.032;2023-02-19T13:59:23;5.53;;;2.50;;
177;SDS011;77;48.792;9.032;2023-02-19T14:04:42;4.20;;;2.77;;
177;SDS011;77;48.792;9.032;2023-02-19T14:07:20;4.63;;;2.60;;
177;SDS011;77;48.792;9.032;2023-02-19T14:09:46;6.23;;;2.80;;
177;SDS011;77;48.792;9.032;2023-02-19T14:12:17;5.10;;;2.60;;
177;SDS011;77;48.792;9.032;2023-02-19T14:14:43;4.60;;;2.60;;
177;SDS011;77;48.792;9.032;2023-02-19T14:17:24;4.70;;;2.87;;
177;SDS011;77;48.792;9.032;2023-02-19T14:19:50;4.87;;;2.70;;
177;SDS011;77;48.792;9.032;2023-02-19T14:25:01;7.10;;;2.60;;
177;SDS011;77;48.792;9.032;2023-02-19T14:27:27;6.40;;;2.70;;
177;SDS011;77;48.792;9.032;2023-02-19T14:29:52;4.30;;;2.47;;
177;SDS011;77;48.792;9.032;2023-02-19T14:32:18;6.40;;;2.87;;
177;SDS011;77;48.792;9.032;2023-02-19T14:34:44;6.47;;;2.37;;
177;SDS011;77;48.792;9.032;2023-02-19T14:37:10;4.67;;;2.40;;
177;SDS011;77;48.792;9.032;2023-02-19T14:39:38;4.80;;;2.70;;
177;SDS011;77;48.792;9.032;2023-02-19T14:42:06;3.30;;;2.30;;
177;SDS011;77;48.792;9.032;2023-02-19T14:44:40;4.77;;;2.50;;
177;SDS011;77;48.792;9.032;2023-02-19T14:47:12;9.93;;;2.70;;
177;SDS011;77;48.792;9.032;2023-02-19T14:49:40;4.33;;;2.70;;
177;SDS011;77;48.792;9.032;2023-02-19T14:52:09;7.60;;;2.70;;
177;SDS011;77;48.792;9.032;2023-02-19T14:54:39;5.57;;;2.80;;
177;SDS011;77;48.792;9.032;2023-02-19T14:57:10;6.20;;;2.50;;
177;SDS011;77;48.792;9.032;2023-02-19T14:59:36;5.10;;;2.70;;
177;SDS011;77;48.792;9.032;2023-02-19T15:02:11;5.67;;;2.90;;
177;SDS011;77;48.792;9.032;2023-02-19T15:04:37;5.40;;;3.00;;
177;SDS011;77;48.792;9.032;2023-02-19T15:07:06;6.07;;;2.90;;
177;SDS011;77;48.792;9.032;2023-02-19T15:09:32;4.30;;;2.60;;
177;SDS011;77;48.792;9.032;2023-02-19T15:12:00;6.33;;;3.03;;
177;SDS011;77;48.792;9.032;2023-02-19T15:14:26;5.07;;;3.00;;
177;SDS011;77;48.792;9.032;2023-02-19T15:16:53;6.03;;;2.80;;
177;SDS011;77;48.792;9.032;2023-02-19T15:19:20;5.80;;;2.60;;
177;SDS011;77;48.792;9.032;2023-02-19T15:21:46;5.00;;;3.10;;
177;SDS011;77;48.792;9.032;2023-02-19T15:24:12;5.30;;;2.90;;
177;SDS011;77;48.792;9.032;2023-02-19T15:26:38;5.50;;;2.70;;
177;SDS011;77;48.792;9.032;2023-02-19T15:29:07;11.23;;;3.30;;
177;SDS011;77;48.792;9.032;2023-02-19T15:31:35;5.30;;;2.80;;
177;SDS011;77;48.792;9.032;2023-02-19T15:34:00;7.60;;;3.03;;
177;SDS011;77;48.792;9.032;2023-02-19T15:36:26;5.90;;;3.43;;
177;SDS011;77;48.792;9.032;2023-02-19T15:38:52;7.97;;;3.80;;
177;SDS011;77;48.792;9.032;2023-02-19T15:41:18;7.50;;;3.10;;
177;SDS011;77;48.792;9.032;2023-02-19T15:43:45;6.10;;;3.17;;
177;SDS011;77;48.792;9.032;2023-02-19T15:46:13;5.80;;;3.13;;
177;SDS011;77;48.792;9.032;2023-02-19T15:48:41;7.67;;;3.40;;
177;SDS011;77;48.792;9.032;2023-02-19T15:51:09;6.50;;;2.97;;
177;SDS011;77;48.792;9.032;2023-02-19T15:53:37;6.53;;;3.07;;
177;SDS011;77;48.792;9.032;2023-02-19T15:56:06;7.10;;;3.23;;
177;SDS011;77;48.792;9.032;2023-02-19T15:58:33;5.63;;;3.10;;
177;SDS011;77;48.792;9.032;2023-02-19T16:01:00;6.67;;;3.20;;
177;SDS011;77;48.792;9.032;2023-02-19T16:03:26;4.97;;;3.17;;
177;SDS011;77;48.792;9.032;2023-02-19T16:06:00;6.03;;;3.13;;
177;SDS011;77;48.792;9.032;2023-02-19T16:08:27;7.20;;;3.20;;
177;SDS011;77;48.792;9.032;2023-02-19T16:10:53;6.20;;;3.23;;
177;SDS011;77;48.792;9.032;2023-02-19T16:13:21;6.27;;;3.50;;